createdAt,value
2022-11-13T00:01:35.376Z,91.76
2022-11-13T00:03:59.243Z,91.53
2022-11-13T00:06:21.276Z,89.89
2022-11-13T00:08:44.577Z,89.01
2022-11-13T00:11:09.434Z,88.28
2022-11-13T00:13:31.327Z,88.69
2022-11-13T00:15:58.245Z,88.29
2022-11-13T00:18:19.910Z,88.87
2022-11-13T00:20:41.683Z,88.65
2022-11-13T00:23:03.286Z,88.53
2022-11-13T00:25:26.487Z,88.54
2022-11-13T00:27:48.128Z,88.13
2022-11-13T00:30:13.772Z,88.54
2022-11-13T00:32:40.165Z,89.47
2022-11-13T00:35:01.756Z,89.26
2022-11-13T00:37:23.320Z,89.71
2022-11-13T00:39:45.110Z,90.08
2022-11-13T00:42:08.216Z,90.33
2022-11-13T00:44:29.859Z,90.09
2022-11-13T00:46:51.330Z,90.04
2022-11-13T00:49:13.108Z,90.15
2022-11-13T00:51:34.514Z,90.84
2022-11-13T00:53:56.232Z,91.26
2022-11-13T00:56:17.822Z,91.50
2022-11-13T00:58:40.720Z,91.56
2022-11-13T01:01:06.686Z,91.83
2022-11-13T01:03:28.423Z,91.74
2022-11-13T01:05:50.213Z,92.49
2022-11-13T01:08:13.350Z,92.90
2022-11-13T01:10:42.321Z,93.12
2022-11-13T01:13:04.211Z,93.28
2022-11-13T01:15:27.736Z,93.38
2022-11-13T01:17:49.502Z,92.91
2022-11-13T01:20:12.191Z,91.75
2022-11-13T01:22:33.666Z,91.71
2022-11-13T01:24:55.118Z,91.93
2022-11-13T01:27:16.574Z,91.33
2022-11-13T01:29:38.931Z,91.06
2022-11-13T01:32:01.796Z,90.99
2022-11-13T01:34:23.879Z,91.33
2022-11-13T01:36:45.779Z,91.96
2022-11-13T01:39:07.105Z,92.49
2022-11-13T01:41:31.905Z,92.22
2022-11-13T01:43:54.510Z,92.72
2022-11-13T01:46:22.718Z,92.56
2022-11-13T01:48:48.473Z,93.01
2022-11-13T01:51:13.140Z,93.32
2022-11-13T01:53:35.093Z,92.86
2022-11-13T01:55:57.166Z,93.25
2022-11-13T01:58:18.866Z,93.02
2022-11-13T02:00:40.393Z,92.53
2022-11-13T02:03:02.741Z,91.88
2022-11-13T02:05:26.250Z,91.94
2022-11-13T02:07:49.332Z,91.60
2022-11-13T02:10:10.901Z,91.88
2022-11-13T02:12:35.675Z,92.17
2022-11-13T02:14:59.359Z,91.80
2022-11-13T02:17:24.353Z,91.96
2022-11-13T02:19:49.663Z,92.27
2022-11-13T02:22:18.067Z,92.51
2022-11-13T02:24:45.237Z,92.14
2022-11-13T02:27:09.841Z,91.88
2022-11-13T02:29:31.976Z,92.61
2022-11-13T02:31:53.806Z,91.93
2022-11-13T02:34:16.545Z,92.39
2022-11-13T02:36:38.294Z,91.89
2022-11-13T02:39:03.061Z,92.33
2022-11-13T02:41:26.583Z,92.13
2022-11-13T02:43:48.653Z,91.84
2022-11-13T02:46:10.301Z,91.87
2022-11-13T02:48:32.137Z,91.02
2022-11-13T02:50:54.423Z,91.58
2022-11-13T02:53:16.592Z,91.69
2022-11-13T02:55:38.744Z,91.45
2022-11-13T02:58:02.195Z,91.40
2022-11-13T03:00:24.638Z,91.37
2022-11-13T03:02:46.909Z,91.61
2022-11-13T03:05:12.550Z,91.45
2022-11-13T03:07:35.801Z,90.68
2022-11-13T03:09:58.064Z,90.96
2022-11-13T03:12:20.332Z,90.39
2022-11-13T03:14:43.878Z,90.42
2022-11-13T03:17:05.636Z,91.28
2022-11-13T03:19:28.228Z,91.45
2022-11-13T03:21:50.152Z,91.84
2022-11-13T03:24:12.209Z,91.49
2022-11-13T03:26:34.732Z,91.29
2022-11-13T03:28:57.415Z,90.89
2022-11-13T03:31:23.434Z,91.26
2022-11-13T03:33:45.752Z,90.87
2022-11-13T03:36:08.166Z,90.96
2022-11-13T03:38:31.004Z,91.65
2022-11-13T03:40:53.645Z,90.98
2022-11-13T03:43:16.486Z,91.40
2022-11-13T03:45:38.866Z,90.54
2022-11-13T03:48:01.948Z,89.15
2022-11-13T03:50:23.851Z,89.24
2022-11-13T03:52:45.913Z,88.84
2022-11-13T03:55:08.491Z,88.35
2022-11-13T03:57:32.114Z,88.94
2022-11-13T03:59:53.665Z,88.80
2022-11-13T04:02:15.234Z,88.52
2022-11-13T04:04:38.095Z,89.02
2022-11-13T04:06:59.839Z,87.61
2022-11-13T04:09:21.842Z,88.45
2022-11-13T04:11:43.478Z,89.07
2022-11-13T04:14:05.214Z,89.66
2022-11-13T04:16:26.775Z,89.24
2022-11-13T04:18:48.287Z,89.13
2022-11-13T04:21:11.496Z,88.30
2022-11-13T04:23:33.133Z,89.04
2022-11-13T04:25:54.651Z,89.91
2022-11-13T04:28:16.526Z,89.04
2022-11-13T04:30:38.485Z,88.93
2022-11-13T04:33:00.002Z,89.67
2022-11-13T04:35:21.464Z,89.07
2022-11-13T04:37:44.280Z,90.21
2022-11-13T04:40:06.942Z,90.39
2022-11-13T04:42:46.355Z,89.93
2022-11-13T04:45:08.734Z,89.51
2022-11-13T04:47:30.055Z,89.56
2022-11-13T04:49:51.652Z,89.21
2022-11-13T04:52:13.428Z,88.82
2022-11-13T04:54:36.718Z,88.89
2022-11-13T04:56:58.149Z,89.02
2022-11-13T04:59:19.691Z,89.52
2022-11-13T05:01:41.556Z,88.78
2022-11-13T05:04:03.522Z,89.22
2022-11-13T05:06:25.321Z,89.20
2022-11-13T05:08:47.512Z,89.34
2022-11-13T05:11:10.374Z,88.87
2022-11-13T05:13:33.132Z,89.06
2022-11-13T05:16:01.637Z,89.55
2022-11-13T05:18:26.387Z,89.63
2022-11-13T05:20:48.596Z,89.11
2022-11-13T05:23:10.028Z,88.54
2022-11-13T05:25:32.287Z,88.32
2022-11-13T05:27:55.690Z,87.69
2022-11-13T05:30:17.850Z,88.74
2022-11-13T05:32:39.571Z,87.99
2022-11-13T05:35:01.091Z,88.45
2022-11-13T05:37:22.900Z,87.95
2022-11-13T05:39:45.159Z,89.45
2022-11-13T05:42:07.024Z,89.79
2022-11-13T05:44:29.721Z,89.40
2022-11-13T05:46:51.064Z,88.85
2022-11-13T05:49:12.516Z,89.10
2022-11-13T05:51:35.337Z,89.25
2022-11-13T05:53:57.350Z,89.54
2022-11-13T05:56:20.242Z,89.09
2022-11-13T05:58:42.964Z,89.03
2022-11-13T06:01:11.756Z,89.57
2022-11-13T06:03:33.132Z,89.26
2022-11-13T06:05:54.925Z,90.15
2022-11-13T06:08:18.580Z,88.48
2022-11-13T06:10:40.026Z,87.97
2022-11-13T06:13:01.635Z,87.56
2022-11-13T06:15:22.958Z,88.62
2022-11-13T06:17:47.864Z,88.25
2022-11-13T06:20:10.535Z,87.80
2022-11-13T06:22:31.951Z,88.17
2022-11-13T06:24:53.348Z,89.46
2022-11-13T06:27:14.863Z,88.58
2022-11-13T06:29:36.396Z,89.23
2022-11-13T06:31:58.455Z,88.36
2022-11-13T06:34:21.556Z,88.75
2022-11-13T06:36:43.168Z,89.03
2022-11-13T06:39:07.493Z,89.68
2022-11-13T06:41:31.363Z,89.16
2022-11-13T06:43:53.061Z,89.46
2022-11-13T06:46:15.925Z,89.52
2022-11-13T06:48:37.539Z,90.42
2022-11-13T06:51:03.542Z,90.47
2022-11-13T06:53:25.292Z,89.75
2022-11-13T06:55:49.630Z,90.72
2022-11-13T06:58:11.351Z,90.61
2022-11-13T07:00:36.674Z,90.83
2022-11-13T07:02:59.744Z,90.50
2022-11-13T07:05:21.138Z,90.68
2022-11-13T07:07:44.748Z,90.49
2022-11-13T07:10:06.990Z,90.70
2022-11-13T07:12:29.918Z,89.91
2022-11-13T07:14:51.636Z,90.07
2022-11-13T07:17:14.571Z,90.28
2022-11-13T07:19:36.235Z,89.82
2022-11-13T07:21:57.685Z,89.81
2022-11-13T07:24:20.790Z,89.66
2022-11-13T07:26:42.322Z,90.18
2022-11-13T07:29:04.174Z,90.23
2022-11-13T07:31:25.856Z,89.15
2022-11-13T07:33:49.138Z,89.60
2022-11-13T07:36:11.654Z,89.73
2022-11-13T07:38:33.061Z,89.56
2022-11-13T07:40:56.204Z,89.59
2022-11-13T07:43:17.645Z,89.31
2022-11-13T07:45:39.323Z,90.29
2022-11-13T07:48:01.442Z,89.26
2022-11-13T07:50:23.214Z,89.70
2022-11-13T07:52:45.452Z,90.46
2022-11-13T07:55:08.243Z,90.04
2022-11-13T07:57:31.273Z,90.37
2022-11-13T07:59:52.699Z,90.84
2022-11-13T08:02:16.364Z,90.49
2022-11-13T08:04:38.056Z,90.56
2022-11-13T08:06:59.848Z,89.89
2022-11-13T08:09:22.297Z,88.08
2022-11-13T08:11:44.227Z,87.88
2022-11-13T08:14:07.735Z,87.79
2022-11-13T08:16:29.677Z,87.43
2022-11-13T08:18:51.630Z,87.42
2022-11-13T08:21:15.156Z,86.69
2022-11-13T08:23:36.693Z,86.15
2022-11-13T08:25:58.763Z,86.94
2022-11-13T08:28:20.497Z,86.31
2022-11-13T08:30:45.697Z,87.99
2022-11-13T08:33:07.315Z,88.38
2022-11-13T08:35:29.823Z,88.24
2022-11-13T08:37:51.697Z,88.34
2022-11-13T08:40:13.658Z,89.17
2022-11-13T08:42:35.185Z,88.85
2022-11-13T08:44:56.710Z,88.84
2022-11-13T08:47:19.857Z,89.88
2022-11-13T08:49:42.588Z,89.94
2022-11-13T08:52:04.298Z,90.41
2022-11-13T08:54:26.567Z,90.23
2022-11-13T08:56:53.033Z,89.18
2022-11-13T08:59:17.682Z,88.85
2022-11-13T09:01:39.134Z,89.66
2022-11-13T09:04:02.841Z,89.53
2022-11-13T09:06:24.669Z,90.08
2022-11-13T09:08:46.175Z,89.85
2022-11-13T09:11:08.014Z,89.65
2022-11-13T09:13:29.923Z,89.54
2022-11-13T09:15:51.388Z,89.98
2022-11-13T09:18:12.984Z,90.42
2022-11-13T09:20:36.356Z,90.28
2022-11-13T09:23:00.015Z,89.86
2022-11-13T09:25:21.783Z,89.64
2022-11-13T09:27:43.324Z,89.64
2022-11-13T09:30:05.814Z,89.30
2022-11-13T09:32:27.423Z,89.50
2022-11-13T09:34:49.469Z,89.07
2022-11-13T09:37:12.341Z,89.44
2022-11-13T09:39:34.342Z,88.75
2022-11-13T09:41:59.818Z,89.05
2022-11-13T09:44:25.716Z,89.45
2022-11-13T09:46:50.410Z,89.13
2022-11-13T09:49:17.500Z,89.20
2022-11-13T09:51:40.028Z,90.17
2022-11-13T09:54:06.603Z,90.42
2022-11-13T09:56:30.563Z,89.14
2022-11-13T09:58:59.183Z,90.44
2022-11-13T10:01:27.686Z,90.23
2022-11-13T10:04:01.474Z,91.31
2022-11-13T10:06:28.700Z,91.18
2022-11-13T10:08:57.210Z,91.26
2022-11-13T10:11:28.014Z,90.19
2022-11-13T10:13:51.928Z,91.57
2022-11-13T10:16:21.449Z,91.10
2022-11-13T10:18:44.400Z,89.89
2022-11-13T10:21:14.136Z,89.75
2022-11-13T10:23:38.194Z,91.09
2022-11-13T10:26:05.365Z,91.84
2022-11-13T10:28:49.569Z,93.40
2022-11-13T10:31:11.478Z,92.66
2022-11-13T10:33:33.122Z,91.76
2022-11-13T10:35:58.736Z,90.64
2022-11-13T10:38:26.923Z,89.90
2022-11-13T10:40:49.177Z,91.62
2022-11-13T10:43:15.979Z,91.95
2022-11-13T10:45:40.089Z,92.14
2022-11-13T10:48:04.579Z,90.93
2022-11-13T10:50:28.684Z,90.92
2022-11-13T10:52:51.582Z,91.54
2022-11-13T10:55:17.664Z,92.02
2022-11-13T10:57:39.602Z,91.35
2022-11-13T11:00:01.602Z,90.67
2022-11-13T11:02:25.900Z,91.52
2022-11-13T11:04:48.624Z,92.09
2022-11-13T11:07:20.890Z,92.30
2022-11-13T11:09:44.421Z,91.40
2022-11-13T11:12:18.904Z,91.53
2022-11-13T11:14:45.262Z,92.00
2022-11-13T11:17:07.440Z,91.41
2022-11-13T11:19:32.254Z,91.33
2022-11-13T11:21:55.979Z,90.33
2022-11-13T11:24:21.430Z,90.84
2022-11-13T11:26:47.274Z,90.83
2022-11-13T11:29:15.950Z,90.62
2022-11-13T11:31:43.034Z,89.94
2022-11-13T11:34:14.151Z,89.51
2022-11-13T11:36:43.000Z,88.76
2022-11-13T11:39:13.102Z,87.77
2022-11-13T11:41:39.754Z,87.49
2022-11-13T11:44:06.342Z,86.50
2022-11-13T11:46:28.490Z,87.65
2022-11-13T11:48:51.061Z,87.62
2022-11-13T11:51:22.795Z,88.12
2022-11-13T11:53:54.083Z,88.66
2022-11-13T11:56:23.572Z,88.43
2022-11-13T11:59:05.696Z,88.73
2022-11-13T12:01:35.014Z,89.16
2022-11-13T12:04:08.205Z,89.11
2022-11-13T12:06:40.889Z,89.09
2022-11-13T12:09:09.510Z,89.63
2022-11-13T12:11:33.388Z,89.56
2022-11-13T12:14:03.540Z,89.72
2022-11-13T12:16:31.223Z,89.81
2022-11-13T12:18:57.092Z,88.77
2022-11-13T12:21:23.557Z,88.31
2022-11-13T12:23:58.008Z,88.28
2022-11-13T12:26:25.436Z,88.18
2022-11-13T12:28:51.159Z,88.46
2022-11-13T12:31:20.273Z,88.64
2022-11-13T12:33:49.513Z,88.22
2022-11-13T12:36:12.719Z,88.26
2022-11-13T12:38:40.091Z,87.95
2022-11-13T12:41:09.073Z,87.79
2022-11-13T12:43:43.260Z,88.42
2022-11-13T12:46:08.817Z,88.64
2022-11-13T12:48:35.029Z,87.58
2022-11-13T12:51:01.204Z,88.59
2022-11-13T12:53:26.985Z,87.11
2022-11-13T12:55:59.990Z,87.63
2022-11-13T12:58:25.501Z,86.56
2022-11-13T13:00:55.616Z,88.02
2022-11-13T13:03:31.868Z,86.54
2022-11-13T13:06:03.848Z,86.55
2022-11-13T13:08:48.548Z,88.16
2022-11-13T13:11:19.386Z,87.67
2022-11-13T13:13:46.464Z,86.46
2022-11-13T13:16:09.938Z,87.03
2022-11-13T13:18:34.057Z,86.58
2022-11-13T13:21:07.412Z,85.25
2022-11-13T13:23:32.081Z,86.42
2022-11-13T13:26:03.621Z,86.35
2022-11-13T13:28:25.573Z,86.27
2022-11-13T13:30:52.787Z,86.75
2022-11-13T13:33:22.062Z,87.12
2022-11-13T13:35:56.156Z,88.71
2022-11-13T13:38:25.210Z,87.06
2022-11-13T13:41:00.531Z,87.79
2022-11-13T13:43:35.639Z,89.53
2022-11-13T13:46:03.253Z,88.16
2022-11-13T13:48:28.437Z,89.18
2022-11-13T13:50:52.064Z,89.33
2022-11-13T13:53:17.162Z,89.86
2022-11-13T13:55:40.686Z,89.60
2022-11-13T13:58:05.726Z,89.39
2022-11-13T14:00:27.676Z,90.18
2022-11-13T14:02:50.436Z,88.81
2022-11-13T14:05:27.301Z,89.21
2022-11-13T14:07:49.177Z,90.88
2022-11-13T14:10:16.881Z,89.05
2022-11-13T14:12:42.365Z,90.00
2022-11-13T14:15:06.618Z,89.51
2022-11-13T14:17:29.160Z,90.36
2022-11-13T14:19:51.399Z,89.18
2022-11-13T14:22:14.378Z,90.71
2022-11-13T14:24:47.937Z,90.83
2022-11-13T14:27:12.018Z,90.30
2022-11-13T14:29:37.165Z,89.85
2022-11-13T14:32:04.452Z,90.79
2022-11-13T14:34:25.864Z,90.56
2022-11-13T14:36:48.374Z,89.76
2022-11-13T14:39:20.772Z,91.30
2022-11-13T14:41:47.558Z,90.02
2022-11-13T14:44:11.785Z,91.33
2022-11-13T14:46:37.020Z,91.01
2022-11-13T14:48:59.126Z,90.48
2022-11-13T14:51:24.969Z,91.19
2022-11-13T14:53:58.493Z,90.29
2022-11-13T14:56:33.432Z,90.31
2022-11-13T14:58:55.042Z,91.16
2022-11-13T15:01:18.140Z,92.23
2022-11-13T15:03:39.769Z,92.28
2022-11-13T15:06:01.317Z,91.37
2022-11-13T15:08:22.953Z,90.92
2022-11-13T15:10:44.953Z,91.23
2022-11-13T15:13:12.852Z,91.93
2022-11-13T15:15:34.718Z,90.92
2022-11-13T15:17:56.848Z,91.72
2022-11-13T15:20:22.384Z,91.75
2022-11-13T15:22:44.122Z,92.44
2022-11-13T15:25:10.382Z,91.87
2022-11-13T15:27:32.096Z,92.46
2022-11-13T15:29:54.606Z,90.89
2022-11-13T15:32:16.622Z,91.68
2022-11-13T15:34:38.203Z,91.24
2022-11-13T15:36:59.897Z,91.50
2022-11-13T15:39:24.016Z,92.55
2022-11-13T15:41:47.146Z,93.14
2022-11-13T15:44:13.527Z,92.65
2022-11-13T15:46:36.647Z,93.96
2022-11-13T15:48:58.365Z,93.02
2022-11-13T15:51:23.125Z,92.88
2022-11-13T15:53:45.556Z,92.23
2022-11-13T15:56:07.974Z,92.67
2022-11-13T15:58:33.492Z,92.73
2022-11-13T16:00:56.357Z,93.03
2022-11-13T16:03:19.276Z,92.19
2022-11-13T16:05:40.759Z,92.92
2022-11-13T16:08:02.571Z,93.47
2022-11-13T16:10:25.821Z,93.48
2022-11-13T16:12:47.597Z,93.26
2022-11-13T16:15:10.812Z,92.94
2022-11-13T16:17:34.732Z,92.59
2022-11-13T16:19:57.976Z,93.05
2022-11-13T16:22:21.840Z,93.16
2022-11-13T16:24:44.064Z,93.25
2022-11-13T16:27:06.306Z,93.50
2022-11-13T16:29:28.354Z,92.90
2022-11-13T16:31:50.190Z,92.42
2022-11-13T16:34:11.639Z,91.70
2022-11-13T16:36:34.845Z,92.08
2022-11-13T16:38:56.658Z,92.84
2022-11-13T16:41:20.281Z,93.00
2022-11-13T16:43:42.111Z,92.97
2022-11-13T16:46:03.938Z,93.65
2022-11-13T16:48:25.440Z,94.28
2022-11-13T16:50:47.096Z,93.02
2022-11-13T16:53:10.429Z,93.00
2022-11-13T16:55:32.081Z,92.03
2022-11-13T16:57:53.574Z,92.64
2022-11-13T17:00:17.391Z,93.99
2022-11-13T17:02:39.678Z,94.12
2022-11-13T17:05:01.357Z,93.90
2022-11-13T17:07:23.319Z,93.75
2022-11-13T17:09:55.110Z,93.15
2022-11-13T17:12:25.710Z,94.17
2022-11-13T17:14:47.403Z,93.69
2022-11-13T17:17:13.126Z,93.43
2022-11-13T17:19:34.860Z,93.46
2022-11-13T17:21:56.625Z,92.58
2022-11-13T17:24:19.483Z,92.27
2022-11-13T17:26:42.247Z,93.38
2022-11-13T17:29:05.685Z,92.89
2022-11-13T17:31:27.856Z,91.86
2022-11-13T17:33:49.607Z,92.67
2022-11-13T17:36:12.110Z,93.74
2022-11-13T17:38:33.985Z,93.99
2022-11-13T17:40:55.750Z,93.04
2022-11-13T17:43:18.905Z,93.34
2022-11-13T17:45:40.692Z,94.91
2022-11-13T17:48:02.514Z,93.81
2022-11-13T17:50:24.279Z,93.48
2022-11-13T17:52:45.811Z,93.50
2022-11-13T17:55:10.752Z,94.81
2022-11-13T17:57:33.382Z,93.87
2022-11-13T17:59:56.561Z,94.46
2022-11-13T18:02:18.237Z,94.51
2022-11-13T18:04:40.115Z,93.88
2022-11-13T18:07:01.921Z,93.78
2022-11-13T18:09:23.331Z,94.55
2022-11-13T18:11:45.176Z,94.44
2022-11-13T18:14:07.179Z,95.77
2022-11-13T18:16:33.925Z,95.05
2022-11-13T18:18:57.904Z,92.62
2022-11-13T18:21:23.483Z,93.68
2022-11-13T18:23:45.674Z,93.31
2022-11-13T18:26:09.742Z,93.78
2022-11-13T18:28:31.418Z,94.51
2022-11-13T18:30:56.586Z,94.01
2022-11-13T18:33:20.174Z,94.75
2022-11-13T18:35:42.327Z,93.91
2022-11-13T18:38:04.117Z,93.49
2022-11-13T18:40:26.039Z,93.35
2022-11-13T18:42:47.979Z,94.08
2022-11-13T18:45:11.731Z,94.07
2022-11-13T18:47:35.534Z,93.00
2022-11-13T18:49:58.813Z,93.29
2022-11-13T18:52:20.596Z,93.73
2022-11-13T18:54:42.257Z,94.37
2022-11-13T18:57:04.152Z,92.56
2022-11-13T18:59:25.666Z,92.45
2022-11-13T19:01:47.435Z,92.57
2022-11-13T19:04:25.683Z,93.19
2022-11-13T19:06:49.306Z,92.11
2022-11-13T19:09:13.598Z,92.88
2022-11-13T19:11:35.636Z,92.97
2022-11-13T19:13:57.682Z,93.45
2022-11-13T19:16:21.314Z,92.11
2022-11-13T19:18:44.121Z,93.05
2022-11-13T19:21:07.127Z,92.53
2022-11-13T19:23:30.066Z,93.28
2022-11-13T19:25:51.671Z,92.76
2022-11-13T19:28:13.313Z,94.06
2022-11-13T19:30:35.006Z,94.10
2022-11-13T19:32:56.971Z,94.05
2022-11-13T19:35:18.873Z,92.73
2022-11-13T19:37:40.861Z,91.15
2022-11-13T19:40:04.353Z,91.01
2022-11-13T19:42:26.048Z,89.77
2022-11-13T19:44:48.493Z,90.73
2022-11-13T19:47:10.315Z,91.00
2022-11-13T19:49:31.960Z,91.12
2022-11-13T19:51:54.746Z,91.78
2022-11-13T19:54:17.010Z,92.21
2022-11-13T19:56:40.028Z,91.90
2022-11-13T19:59:01.938Z,92.01
2022-11-13T20:01:25.822Z,92.55
2022-11-13T20:03:48.475Z,92.93
2022-11-13T20:06:11.831Z,92.73
2022-11-13T20:08:34.954Z,92.55
2022-11-13T20:11:02.132Z,92.63
2022-11-13T20:13:25.325Z,93.16
2022-11-13T20:15:54.102Z,93.02
2022-11-13T20:18:16.883Z,92.75
2022-11-13T20:20:38.876Z,93.16
2022-11-13T20:23:03.645Z,93.54
2022-11-13T20:25:25.267Z,93.38
2022-11-13T20:27:47.742Z,93.83
2022-11-13T20:30:13.011Z,93.40
2022-11-13T20:32:37.650Z,92.98
2022-11-13T20:34:59.536Z,92.64
2022-11-13T20:37:21.197Z,92.45
2022-11-13T20:39:42.875Z,92.88
2022-11-13T20:42:05.107Z,92.89
2022-11-13T20:44:27.574Z,92.23
2022-11-13T20:46:50.395Z,92.70
2022-11-13T20:49:13.348Z,91.76
2022-11-13T20:51:35.757Z,91.33
2022-11-13T20:53:57.811Z,90.69
2022-11-13T20:56:21.639Z,90.02
2022-11-13T20:58:44.298Z,89.53
2022-11-13T21:01:08.210Z,89.32
2022-11-13T21:03:31.698Z,89.28
2022-11-13T21:05:53.742Z,89.51
2022-11-13T21:08:15.816Z,89.88
2022-11-13T21:10:37.428Z,90.51
2022-11-13T21:12:59.376Z,91.09
2022-11-13T21:15:21.711Z,91.94
2022-11-13T21:17:43.794Z,91.58
2022-11-13T21:20:08.497Z,91.58
2022-11-13T21:22:30.136Z,91.25
2022-11-13T21:24:51.727Z,91.38
2022-11-13T21:27:13.571Z,91.51
2022-11-13T21:29:36.590Z,91.20
2022-11-13T21:31:58.758Z,90.83
2022-11-13T21:34:21.842Z,91.68
2022-11-13T21:36:45.307Z,92.10
2022-11-13T21:39:07.159Z,91.45
2022-11-13T21:41:29.932Z,91.68
2022-11-13T21:43:53.261Z,92.01
2022-11-13T21:46:15.035Z,92.40
2022-11-13T21:48:37.310Z,93.20
2022-11-13T21:50:59.563Z,92.24
2022-11-13T21:53:22.907Z,91.46
2022-11-13T21:55:50.123Z,90.29
2022-11-13T21:58:11.869Z,90.09
2022-11-13T22:00:34.195Z,90.54
2022-11-13T22:02:55.822Z,91.09
2022-11-13T22:05:17.659Z,91.84
2022-11-13T22:07:39.139Z,91.59
2022-11-13T22:10:07.926Z,91.76
2022-11-13T22:12:31.061Z,92.72
2022-11-13T22:14:52.566Z,92.74
2022-11-13T22:17:14.531Z,92.21
2022-11-13T22:19:36.682Z,92.14
2022-11-13T22:21:58.563Z,93.00
2022-11-13T22:24:20.487Z,92.74
2022-11-13T22:26:45.241Z,91.72
2022-11-13T22:29:07.346Z,91.37
2022-11-13T22:31:30.346Z,90.44
2022-11-13T22:33:55.158Z,89.35
2022-11-13T22:36:19.656Z,89.14
2022-11-13T22:38:41.186Z,90.02
2022-11-13T22:41:04.306Z,90.49
2022-11-13T22:43:27.428Z,91.44
2022-11-13T22:45:48.789Z,91.68
2022-11-13T22:48:11.568Z,91.87
2022-11-13T22:50:35.903Z,92.45
2022-11-13T22:52:57.613Z,93.94
2022-11-13T22:55:19.523Z,93.92
2022-11-13T22:57:40.995Z,93.37
2022-11-13T23:00:09.209Z,92.58
2022-11-13T23:02:30.888Z,93.15
2022-11-13T23:04:52.528Z,92.89
2022-11-13T23:07:14.152Z,94.32
2022-11-13T23:09:35.929Z,93.95
2022-11-13T23:11:57.671Z,94.65
2022-11-13T23:14:19.071Z,94.20
2022-11-13T23:16:43.167Z,95.12
2022-11-13T23:19:05.481Z,94.90
2022-11-13T23:21:27.767Z,94.89
2022-11-13T23:23:49.456Z,95.08
2022-11-13T23:26:12.117Z,94.83
2022-11-13T23:28:33.877Z,94.39
2022-11-13T23:30:55.724Z,94.63
2022-11-13T23:33:18.966Z,94.27
2022-11-13T23:35:40.870Z,94.21
2022-11-13T23:38:02.626Z,94.45
2022-11-13T23:40:24.541Z,94.79
2022-11-13T23:42:55.270Z,94.57
2022-11-13T23:45:17.435Z,94.98
2022-11-13T23:47:39.387Z,94.82
2022-11-13T23:50:02.523Z,94.85
2022-11-13T23:52:24.387Z,94.53
2022-11-13T23:54:45.970Z,94.31
2022-11-13T23:57:07.617Z,94.16
2022-11-13T23:59:29.074Z,94.79
